Glenwillard, PA (15046)

11:17 AM EDT on August 25, 2016 (GMT -0400)
Quaker Heights | | Change Station

Elev 1138 ft 40.57 °N, 80.21 °W | Updated 9 minutes ago

Overcast
Overcast
77.9 °F
Feels Like 80 °F
N
3.7
Wind Variable Wind from SW

Today
High -- | Low -- °F
--% Chance of Precip.
Yesterday
High -- | Low -- °F
Precip. -- in
Pressure 30.09 in
Visibility 10.0 miles
Clouds Mostly Cloudy 2200 ft
Mostly Cloudy 3200 ft
Overcast 25000 ft
Heat Index 80 °F
Dew Point 72 °F
Humidity 81%
Rainfall 0.24 in
Snow Depth Not available.
6:41 AM 8:03 PM
Last Quarter, 45% visible
METAR KPIT 251451Z 24008KT 10SM BKN022 BKN032 OVC250 25/21 A3009 RMK AO2 SLP188 T02500206 50006
Pressure 30.09 in
Visibility 10.0 miles
Clouds Mostly Cloudy 2200 ft
Mostly Cloudy 3200 ft
Overcast 25000 ft
Heat Index 80 °F
Dew Point 72 °F
Humidity 81%
Rainfall 0.24 in
Snow Depth Not available.
6:41 AM 8:03 PM
Last Quarter, 45% visible
METAR KPIT 251451Z 24008KT 10SM BKN022 BKN032 OVC250 25/21 A3009 RMK AO2 SLP188 T02500206 50006

10-Day Weather Forecast

Almanac

Astronomy

Aug. 25, 2016 Rise Set
Actual Time
Civil Twilight
Nautical Twilight
Astronomical Twilight
Moon
Length of Visible Light
Length of Day
Tomorrow will be .
, % of the Moon is Illuminated

Today's Extremes

State Highs State Lows

Community

WunderPhotos

Upload Photos

1,934,856 photos uploaded!

WunderBlog® & News

Nearby

Air Quality

  Air Quality AQ Index Pollutant
Not available.

Snow Depth

Station Depth Elevation

Earthquake Activity

City Distance Mag. Time & Date
Minimum magnitude displayed is 2.5.

Coastal Water Temperatures

Place Temperature

Stations

Nearby Weather Stations

Station Location Temp. Windchill Dew Point Humidity Wind Precip. Elev Updated Type
                   

Watches & Warnings

There are currently no watches in effect.